sensor_id;sensor_type;location;lat;lon;timestamp;P1;durP1;ratioP1;P2;durP2;ratioP2
3979;SDS011;2004;52.452;13.120;2022-12-18T00:05:51;44.93;;;16.00;;
3979;SDS011;2004;52.452;13.120;2022-12-18T00:13:42;49.80;;;17.20;;
3979;SDS011;2004;52.452;13.120;2022-12-18T00:21:34;48.93;;;16.60;;
3979;SDS011;2004;52.452;13.120;2022-12-18T00:29:24;53.27;;;18.33;;
3979;SDS011;2004;52.452;13.120;2022-12-18T00:37:15;47.40;;;16.83;;
3979;SDS011;2004;52.452;13.120;2022-12-18T00:45:05;43.30;;;16.03;;
3979;SDS011;2004;52.452;13.120;2022-12-18T00:52:56;37.37;;;15.97;;
3979;SDS011;2004;52.452;13.120;2022-12-18T01:00:46;49.80;;;16.10;;
3979;SDS011;2004;52.452;13.120;2022-12-18T01:08:37;48.87;;;16.30;;
3979;SDS011;2004;52.452;13.120;2022-12-18T01:16:28;43.23;;;17.10;;
3979;SDS011;2004;52.452;13.120;2022-12-18T01:24:18;47.57;;;16.13;;
3979;SDS011;2004;52.452;13.120;2022-12-18T01:32:09;44.37;;;17.00;;
3979;SDS011;2004;52.452;13.120;2022-12-18T01:40:00;47.43;;;15.43;;
3979;SDS011;2004;52.452;13.120;2022-12-18T01:47:51;44.07;;;16.50;;
3979;SDS011;2004;52.452;13.120;2022-12-18T01:55:51;42.53;;;16.30;;
3979;SDS011;2004;52.452;13.120;2022-12-18T02:03:44;41.53;;;14.87;;
3979;SDS011;2004;52.452;13.120;2022-12-18T02:11:44;40.93;;;14.53;;
3979;SDS011;2004;52.452;13.120;2022-12-18T02:20:02;51.77;;;16.40;;
3979;SDS011;2004;52.452;13.120;2022-12-18T02:28:01;48.97;;;16.73;;
3979;SDS011;2004;52.452;13.120;2022-12-18T02:35:55;39.70;;;14.33;;
3979;SDS011;2004;52.452;13.120;2022-12-18T02:43:49;43.93;;;15.30;;
3979;SDS011;2004;52.452;13.120;2022-12-18T02:51:53;47.07;;;16.33;;
3979;SDS011;2004;52.452;13.120;2022-12-18T02:59:56;38.73;;;17.13;;
3979;SDS011;2004;52.452;13.120;2022-12-18T03:08:06;52.13;;;16.60;;
3979;SDS011;2004;52.452;13.120;2022-12-18T03:16:01;38.80;;;15.27;;
3979;SDS011;2004;52.452;13.120;2022-12-18T03:23:55;40.03;;;16.43;;
3979;SDS011;2004;52.452;13.120;2022-12-18T03:31:48;45.60;;;17.90;;
3979;SDS011;2004;52.452;13.120;2022-12-18T03:39:43;50.33;;;17.60;;
3979;SDS011;2004;52.452;13.120;2022-12-18T03:47:51;50.67;;;17.60;;
3979;SDS011;2004;52.452;13.120;2022-12-18T03:55:58;46.83;;;18.10;;
3979;SDS011;2004;52.452;13.120;2022-12-18T04:03:50;52.30;;;18.60;;
3979;SDS011;2004;52.452;13.120;2022-12-18T04:11:42;56.27;;;20.67;;
3979;SDS011;2004;52.452;13.120;2022-12-18T04:19:34;43.63;;;17.20;;
3979;SDS011;2004;52.452;13.120;2022-12-18T04:27:24;45.67;;;16.77;;
3979;SDS011;2004;52.452;13.120;2022-12-18T04:35:15;41.20;;;17.10;;
3979;SDS011;2004;52.452;13.120;2022-12-18T04:43:05;44.43;;;17.03;;
3979;SDS011;2004;52.452;13.120;2022-12-18T04:50:56;36.03;;;14.53;;
3979;SDS011;2004;52.452;13.120;2022-12-18T04:58:46;35.90;;;15.23;;
3979;SDS011;2004;52.452;13.120;2022-12-18T05:06:37;42.53;;;15.77;;
3979;SDS011;2004;52.452;13.120;2022-12-18T05:14:27;39.93;;;16.40;;
3979;SDS011;2004;52.452;13.120;2022-12-18T05:22:19;37.87;;;14.47;;
3979;SDS011;2004;52.452;13.120;2022-12-18T05:30:09;38.60;;;15.87;;
3979;SDS011;2004;52.452;13.120;2022-12-18T05:38:00;38.23;;;16.50;;
3979;SDS011;2004;52.452;13.120;2022-12-18T05:45:51;35.90;;;15.80;;
3979;SDS011;2004;52.452;13.120;2022-12-18T05:53:43;38.40;;;16.33;;
3979;SDS011;2004;52.452;13.120;2022-12-18T06:01:33;34.87;;;14.77;;
3979;SDS011;2004;52.452;13.120;2022-12-18T06:09:24;35.00;;;14.17;;
3979;SDS011;2004;52.452;13.120;2022-12-18T06:17:14;38.00;;;15.67;;
3979;SDS011;2004;52.452;13.120;2022-12-18T06:25:05;43.83;;;16.57;;
3979;SDS011;2004;52.452;13.120;2022-12-18T06:32:56;37.73;;;15.10;;
3979;SDS011;2004;52.452;13.120;2022-12-18T06:40:46;37.00;;;14.70;;
3979;SDS011;2004;52.452;13.120;2022-12-18T06:48:37;36.07;;;15.87;;
3979;SDS011;2004;52.452;13.120;2022-12-18T06:56:27;41.20;;;16.27;;
3979;SDS011;2004;52.452;13.120;2022-12-18T07:04:18;35.73;;;15.17;;
3979;SDS011;2004;52.452;13.120;2022-12-18T07:12:08;43.87;;;16.70;;
3979;SDS011;2004;52.452;13.120;2022-12-18T07:19:59;37.00;;;15.80;;
3979;SDS011;2004;52.452;13.120;2022-12-18T07:27:50;44.77;;;15.97;;
3979;SDS011;2004;52.452;13.120;2022-12-18T07:35:40;38.33;;;15.83;;
3979;SDS011;2004;52.452;13.120;2022-12-18T07:43:31;46.87;;;17.10;;
3979;SDS011;2004;52.452;13.120;2022-12-18T07:51:21;45.17;;;17.30;;
3979;SDS011;2004;52.452;13.120;2022-12-18T07:59:12;40.10;;;16.03;;
3979;SDS011;2004;52.452;13.120;2022-12-18T08:07:02;43.07;;;16.97;;
3979;SDS011;2004;52.452;13.120;2022-12-18T08:14:53;32.40;;;14.10;;
3979;SDS011;2004;52.452;13.120;2022-12-18T08:22:43;35.17;;;16.13;;
3979;SDS011;2004;52.452;13.120;2022-12-18T08:30:35;54.57;;;22.50;;
3979;SDS011;2004;52.452;13.120;2022-12-18T08:38:25;51.20;;;20.20;;
3979;SDS011;2004;52.452;13.120;2022-12-18T08:46:16;68.97;;;29.10;;
3979;SDS011;2004;52.452;13.120;2022-12-18T08:54:11;82.57;;;28.60;;
3979;SDS011;2004;52.452;13.120;2022-12-18T09:02:02;66.93;;;24.67;;
3979;SDS011;2004;52.452;13.120;2022-12-18T09:09:53;68.90;;;24.90;;
3979;SDS011;2004;52.452;13.120;2022-12-18T09:17:43;80.03;;;26.63;;
3979;SDS011;2004;52.452;13.120;2022-12-18T09:25:34;69.63;;;25.67;;
3979;SDS011;2004;52.452;13.120;2022-12-18T09:33:25;61.77;;;23.13;;
3979;SDS011;2004;52.452;13.120;2022-12-18T09:49:39;58.00;;;23.53;;
3979;SDS011;2004;52.452;13.120;2022-12-18T09:57:33;69.67;;;26.67;;
3979;SDS011;2004;52.452;13.120;2022-12-18T10:05:33;56.27;;;22.67;;
3979;SDS011;2004;52.452;13.120;2022-12-18T10:13:51;56.63;;;24.33;;
3979;SDS011;2004;52.452;13.120;2022-12-18T10:21:48;46.70;;;20.03;;
3979;SDS011;2004;52.452;13.120;2022-12-18T10:29:48;41.87;;;19.03;;
3979;SDS011;2004;52.452;13.120;2022-12-18T10:37:39;41.10;;;17.40;;
3979;SDS011;2004;52.452;13.120;2022-12-18T10:46:16;37.27;;;15.53;;
3979;SDS011;2004;52.452;13.120;2022-12-18T10:54:14;41.83;;;17.57;;
3979;SDS011;2004;52.452;13.120;2022-12-18T11:02:07;40.37;;;18.50;;
3979;SDS011;2004;52.452;13.120;2022-12-18T11:10:26;44.40;;;19.47;;
3979;SDS011;2004;52.452;13.120;2022-12-18T11:18:30;35.23;;;14.63;;
3979;SDS011;2004;52.452;13.120;2022-12-18T11:26:25;40.27;;;19.40;;
3979;SDS011;2004;52.452;13.120;2022-12-18T11:34:26;40.77;;;20.00;;
3979;SDS011;2004;52.452;13.120;2022-12-18T11:42:22;50.43;;;20.67;;
3979;SDS011;2004;52.452;13.120;2022-12-18T11:50:22;63.77;;;26.90;;
3979;SDS011;2004;52.452;13.120;2022-12-18T11:58:26;45.97;;;17.97;;
3979;SDS011;2004;52.452;13.120;2022-12-18T12:06:33;39.30;;;17.73;;
3979;SDS011;2004;52.452;13.120;2022-12-18T12:14:56;46.37;;;19.30;;
3979;SDS011;2004;52.452;13.120;2022-12-18T12:31:16;51.10;;;19.37;;
3979;SDS011;2004;52.452;13.120;2022-12-18T12:39:35;45.57;;;20.03;;
3979;SDS011;2004;52.452;13.120;2022-12-18T12:47:29;38.50;;;18.37;;
3979;SDS011;2004;52.452;13.120;2022-12-18T12:55:24;40.57;;;18.80;;
3979;SDS011;2004;52.452;13.120;2022-12-18T13:11:28;50.17;;;28.00;;
3979;SDS011;2004;52.452;13.120;2022-12-18T13:19:44;44.53;;;26.37;;
3979;SDS011;2004;52.452;13.120;2022-12-18T13:35:39;43.40;;;23.40;;
3979;SDS011;2004;52.452;13.120;2022-12-18T13:51:46;36.57;;;18.00;;
3979;SDS011;2004;52.452;13.120;2022-12-18T13:59:39;37.13;;;15.73;;
3979;SDS011;2004;52.452;13.120;2022-12-18T14:07:30;32.37;;;14.60;;
3979;SDS011;2004;52.452;13.120;2022-12-18T14:23:39;21.10;;;11.03;;
3979;SDS011;2004;52.452;13.120;2022-12-18T14:31:31;22.17;;;12.13;;
3979;SDS011;2004;52.452;13.120;2022-12-18T14:39:22;28.67;;;13.37;;
3979;SDS011;2004;52.452;13.120;2022-12-18T14:47:15;25.67;;;13.67;;
3979;SDS011;2004;52.452;13.120;2022-12-18T14:55:14;33.80;;;18.37;;
3979;SDS011;2004;52.452;13.120;2022-12-18T15:03:06;37.90;;;19.47;;
3979;SDS011;2004;52.452;13.120;2022-12-18T15:10:58;32.83;;;17.33;;
3979;SDS011;2004;52.452;13.120;2022-12-18T15:18:48;56.23;;;24.70;;
3979;SDS011;2004;52.452;13.120;2022-12-18T15:26:39;52.83;;;22.90;;
3979;SDS011;2004;52.452;13.120;2022-12-18T15:34:30;66.53;;;29.50;;
3979;SDS011;2004;52.452;13.120;2022-12-18T15:42:21;54.60;;;24.87;;
3979;SDS011;2004;52.452;13.120;2022-12-18T15:50:31;56.83;;;21.00;;
3979;SDS011;2004;52.452;13.120;2022-12-18T15:58:21;50.20;;;23.07;;
3979;SDS011;2004;52.452;13.120;2022-12-18T16:06:12;45.23;;;18.97;;
3979;SDS011;2004;52.452;13.120;2022-12-18T16:22:27;45.77;;;17.97;;
3979;SDS011;2004;52.452;13.120;2022-12-18T16:30:20;38.23;;;18.60;;
3979;SDS011;2004;52.452;13.120;2022-12-18T16:38:17;42.50;;;19.17;;
3979;SDS011;2004;52.452;13.120;2022-12-18T16:46:08;39.07;;;18.10;;
3979;SDS011;2004;52.452;13.120;2022-12-18T16:53:58;36.63;;;18.63;;
3979;SDS011;2004;52.452;13.120;2022-12-18T17:01:49;42.30;;;19.50;;
3979;SDS011;2004;52.452;13.120;2022-12-18T17:09:40;36.70;;;19.27;;
3979;SDS011;2004;52.452;13.120;2022-12-18T17:17:31;45.07;;;21.20;;
3979;SDS011;2004;52.452;13.120;2022-12-18T17:25:21;34.47;;;15.30;;
3979;SDS011;2004;52.452;13.120;2022-12-18T17:33:12;32.23;;;15.50;;
3979;SDS011;2004;52.452;13.120;2022-12-18T17:41:03;32.67;;;15.90;;
3979;SDS011;2004;52.452;13.120;2022-12-18T17:48:55;34.67;;;16.90;;
3979;SDS011;2004;52.452;13.120;2022-12-18T17:56:48;30.57;;;14.17;;
3979;SDS011;2004;52.452;13.120;2022-12-18T18:04:39;41.20;;;18.30;;
3979;SDS011;2004;52.452;13.120;2022-12-18T18:12:29;26.70;;;15.17;;
3979;SDS011;2004;52.452;13.120;2022-12-18T18:20:39;34.03;;;17.20;;
3979;SDS011;2004;52.452;13.120;2022-12-18T18:28:29;30.90;;;15.13;;
3979;SDS011;2004;52.452;13.120;2022-12-18T18:36:21;33.20;;;15.37;;
3979;SDS011;2004;52.452;13.120;2022-12-18T18:44:12;31.83;;;15.23;;
3979;SDS011;2004;52.452;13.120;2022-12-18T18:52:02;32.23;;;15.37;;
3979;SDS011;2004;52.452;13.120;2022-12-18T18:59:53;36.33;;;17.20;;
3979;SDS011;2004;52.452;13.120;2022-12-18T19:07:44;35.87;;;15.33;;
3979;SDS011;2004;52.452;13.120;2022-12-18T19:15:34;41.97;;;19.20;;
3979;SDS011;2004;52.452;13.120;2022-12-18T19:23:25;34.00;;;16.07;;
3979;SDS011;2004;52.452;13.120;2022-12-18T19:31:17;37.80;;;19.03;;
3979;SDS011;2004;52.452;13.120;2022-12-18T19:39:13;47.97;;;20.33;;
3979;SDS011;2004;52.452;13.120;2022-12-18T19:47:07;38.10;;;17.23;;
3979;SDS011;2004;52.452;13.120;2022-12-18T19:54:58;38.20;;;16.63;;
3979;SDS011;2004;52.452;13.120;2022-12-18T20:02:48;35.57;;;16.90;;
3979;SDS011;2004;52.452;13.120;2022-12-18T20:10:39;32.37;;;15.60;;
3979;SDS011;2004;52.452;13.120;2022-12-18T20:18:30;43.17;;;19.20;;
3979;SDS011;2004;52.452;13.120;2022-12-18T20:26:22;37.83;;;18.27;;
3979;SDS011;2004;52.452;13.120;2022-12-18T20:34:13;45.50;;;19.60;;
3979;SDS011;2004;52.452;13.120;2022-12-18T20:42:03;50.10;;;20.70;;
3979;SDS011;2004;52.452;13.120;2022-12-18T20:49:54;41.60;;;19.33;;
3979;SDS011;2004;52.452;13.120;2022-12-18T20:57:45;45.73;;;18.70;;
3979;SDS011;2004;52.452;13.120;2022-12-18T21:05:36;44.20;;;20.07;;
3979;SDS011;2004;52.452;13.120;2022-12-18T21:13:26;41.60;;;18.10;;
3979;SDS011;2004;52.452;13.120;2022-12-18T21:21:17;39.00;;;17.37;;
3979;SDS011;2004;52.452;13.120;2022-12-18T21:29:10;39.17;;;16.80;;
3979;SDS011;2004;52.452;13.120;2022-12-18T21:37:05;36.87;;;17.60;;
3979;SDS011;2004;52.452;13.120;2022-12-18T21:44:56;43.80;;;19.03;;
3979;SDS011;2004;52.452;13.120;2022-12-18T21:52:47;48.23;;;17.90;;
3979;SDS011;2004;52.452;13.120;2022-12-18T22:00:37;47.83;;;18.47;;
3979;SDS011;2004;52.452;13.120;2022-12-18T22:08:28;42.87;;;17.57;;
3979;SDS011;2004;52.452;13.120;2022-12-18T22:16:18;41.23;;;16.80;;
3979;SDS011;2004;52.452;13.120;2022-12-18T22:24:11;39.50;;;17.23;;
3979;SDS011;2004;52.452;13.120;2022-12-18T22:32:03;40.30;;;19.17;;
3979;SDS011;2004;52.452;13.120;2022-12-18T22:39:55;43.40;;;16.00;;
3979;SDS011;2004;52.452;13.120;2022-12-18T22:47:46;36.90;;;15.90;;
3979;SDS011;2004;52.452;13.120;2022-12-18T22:55:37;41.07;;;17.63;;
3979;SDS011;2004;52.452;13.120;2022-12-18T23:03:27;32.67;;;14.50;;
3979;SDS011;2004;52.452;13.120;2022-12-18T23:11:18;36.73;;;16.57;;
3979;SDS011;2004;52.452;13.120;2022-12-18T23:19:09;36.70;;;15.30;;
3979;SDS011;2004;52.452;13.120;2022-12-18T23:26:59;41.90;;;16.83;;
3979;SDS011;2004;52.452;13.120;2022-12-18T23:34:50;39.87;;;16.27;;
3979;SDS011;2004;52.452;13.120;2022-12-18T23:42:40;39.50;;;17.50;;
3979;SDS011;2004;52.452;13.120;2022-12-18T23:50:33;39.53;;;16.00;;
3979;SDS011;2004;52.452;13.120;2022-12-18T23:58:24;41.97;;;15.60;;
